Terminal Aerodrome Forecast
Issued by NWS

Home | Current Version | Previous Version | Text Only | Print | Product List | Glossary On
Versions: 1 2 3 4 5 6 7 8 9 10 11 12 13
000
FTUS45 KCYS 242322
TAFRWL
TAF
KRWL 242322Z 2500/2524 04010KT P6SM FEW080
     FM250300 05007KT P6SM SKC
     FM251300 VRB05KT P6SM SKC=

USA.gov is the U.S. government's official web portal to all federal, state and local government web resources and services.